Data for 06/04/2014

Time Sea-Level Adjusted Pressure Absolute Pressure Temperature Relative Humidity Dew Point   
(mb) (inHg) (mb) (inHg) (C) (F) (%) (C) (F)
00:05 1018 30.06 847 25.01 9.6 49.4 88 7.8 46.1
00:10 1018 30.06 847 25.01 9.7 49.4 87 7.6 45.7
00:15 1018 30.06 847 25.01 9.8 49.6 85 7.3 45.2
00:20 1017 30.03 847 25.01 10 49.9 82 7.1 44.7
00:25 1017 30.03 847 25.01 10.1 50.1 83 7.3 45.1
00:30 1017 30.03 847 25.01 10.1 50.2 82 7.1 44.8
00:35 1017 30.03 847 25.01 10.1 50.2 82 7.2 44.9
00:40 1017 30.03 847 25.01 10.1 50.1 83 7.2 45
00:45 1017 30.03 847 25.01 10 50 82 7 44.6
00:50 1017 30.03 846 24.98 10.3 50.6 77 6.5 43.8
00:55 1017 30.03 846 24.98 10.3 50.6 77 6.5 43.8
01:00 1017 30.03 846 24.98 10.2 50.4 79 6.7 44
01:05 1017 30.03 846 24.98 10.1 50.2 78 6.5 43.6
01:10 1017 30.03 846 24.98 10.1 50.2 78 6.4 43.5
01:15 1017 30.03 846 24.98 10.2 50.3 78 6.5 43.7
01:20 1017 30.03 846 24.98 10 49.9 81 6.9 44.5
01:25 1017 30.03 846 24.98 9.6 49.3 82 6.7 44.1
01:30 1017 30.03 846 24.98 9.6 49.3 81 6.5 43.7
01:35 1017 30.03 846 24.98 9.6 49.3 81 6.6 43.9
01:40 1017 30.03 846 24.98 9.5 49 82 6.5 43.7
01:45 1017 30.03 846 24.98 9.3 48.8 82 6.5 43.7
01:50 1017 30.03 846 24.98 9.3 48.7 81 6.2 43.2
01:55 1017 30.03 846 24.98 9.4 48.9 81 6.2 43.2
02:00 1017 30.03 846 24.98 9.3 48.7 82 6.3 43.4
02:05 1017 30.03 846 24.98 9.1 48.4 82 6.2 43.2
02:10 1017 30.03 846 24.98 9.2 48.5 81 6.1 42.9
02:15 1017 30.03 846 24.98 9.2 48.5 81 6 42.8
02:20 1017 30.03 846 24.98 9.2 48.5 80 5.9 42.7
02:25 1017 30.03 846 24.98 9.1 48.3 81 6 42.7
02:30 1017 30.03 846 24.98 8.9 48.1 81 5.9 42.6
02:35 1017 30.03 846 24.98 8.8 47.8 80 5.6 42.1
02:40 1017 30.03 847 25.01 8.8 47.9 81 5.8 42.4
02:45 1017 30.03 847 25.01 8.6 47.5 82 5.7 42.2
02:50 1017 30.03 847 25.01 8.6 47.4 81 5.5 41.9
02:55 1017 30.03 847 25.01 8.5 47.3 82 5.6 42.1
03:00 1017 30.03 847 25.01 8.3 47 82 5.5 42
03:05 1017 30.03 847 25.01 8.3 46.9 82 5.5 41.9
03:10 1017 30.03 847 25.01 8.2 46.8 82 5.3 41.6
03:15 1017 30.03 847 25.01 8.1 46.6 82 5.3 41.5
03:20 1017 30.03 846 24.98 8 46.4 82 5.1 41.2
03:25 1017 30.03 846 24.98 8.1 46.6 81 5.1 41.2
03:30 1017 30.03 846 24.98 8.1 46.6 82 5.2 41.3
03:35 1017 30.03 846 24.98 8 46.4 82 5.1 41.2
03:40 1017 30.03 846 24.98 7.7 45.9 84 5.1 41.2
03:45 1017 30.03 846 24.98 7.6 45.7 83 5 41
03:50 1017 30.03 846 24.98 7.7 45.9 83 5 41.1
03:55 1017 30.03 846 24.98 7.7 45.9 83 5 41.1
04:00 1017 30.03 846 24.98 7.7 45.8 83 5 41
04:05 1017 30.03 846 24.98 7.6 45.6 85 5.2 41.3
04:10 1017 30.03 846 24.98 7.3 45.1 86 5.1 41.2
04:15 1017 30.03 846 24.98 7.1 44.8 86 4.9 40.9
04:20 1017 30.03 846 24.98 7.1 44.7 85 4.8 40.6
04:25 1017 30.03 847 25.01 7.2 45 85 4.9 40.8
04:30 1017 30.03 847 25.01 7.2 44.9 84 4.6 40.3
04:35 1017 30.03 847 25.01 7 44.5 84 4.5 40.1
04:40 1017 30.03 847 25.01 7 44.6 84 4.5 40.1
04:45 1017 30.03 847 25.01 7 44.7 84 4.5 40.1
04:50 1017 30.03 847 25.01 7 44.7 83 4.4 39.9
04:55 1017 30.03 847 25.01 7.1 44.8 83 4.4 39.9
05:00 1017 30.03 847 25.01 7.3 45.1 82 4.4 39.9
05:05 1017 30.03 847 25.01 7.5 45.4 81 4.5 40.1
05:10 1018 30.06 847 25.01 7.6 45.7 80 4.5 40
05:15 1018 30.06 847 25.01 7.8 46 80 4.6 40.2
05:20 1018 30.06 847 25.01 7.9 46.2 80 4.7 40.4
05:25 1018 30.06 847 25.01 8 46.4 79 4.6 40.2
05:30 1018 30.06 847 25.01 8.1 46.5 79 4.6 40.3
05:35 1018 30.06 847 25.01 7.8 46 80 4.5 40.1
05:40 1018 30.06 847 25.01 7.8 46 80 4.6 40.3
05:45 1018 30.06 847 25.01 7.8 46 80 4.5 40.2
05:50 1018 30.06 847 25.01 8 46.3 80 4.7 40.5
05:55 1018 30.06 847 25.01 8.4 47.1 77 4.6 40.3
06:00 1018 30.06 847 25.01 8.8 47.8 75 4.7 40.4
06:05 1018 30.06 847 25.01 9.1 48.4 75 4.9 40.8
06:10 1018 30.06 847 25.01 9.4 49 73 4.9 40.8
06:15 1018 30.06 847 25.01 9.6 49.3 72 4.9 40.8
06:20 1018 30.06 847 25.01 9.6 49.3 74 5.2 41.3
06:25 1018 30.06 847 25.01 9.8 49.6 73 5.3 41.5
06:30 1018 30.06 847 25.01 10.3 50.6 68 4.7 40.4
06:35 1018 30.06 847 25.01 10.5 50.9 70 5.3 41.5
06:40 1018 30.06 847 25.01 10.8 51.5 67 4.9 40.8
06:45 1018 30.06 847 25.01 11.2 52.2 66 5.1 41.2
06:50 1018 30.06 847 25.01 11.3 52.3 67 5.5 41.8
06:55 1018 30.06 847 25.01 11.1 52 68 5.5 41.9
07:00 1018 30.06 847 25.01 11.3 52.3 69 5.9 42.6
07:05 1018 30.06 847 25.01 11.5 52.7 68 6 42.7
07:10 1018 30.06 847 25.01 11.4 52.5 69 6 42.8
07:15 1018 30.06 848 25.04 11.1 52 72 6.2 43.2
07:20 1018 30.06 848 25.04 11.1 52 72 6.3 43.4
07:25 1018 30.06 848 25.04 11.2 52.2 72 6.3 43.4
07:30 1019 30.09 848 25.04 11.3 52.4 72 6.5 43.7
07:35 1019 30.09 848 25.04 11.4 52.4 73 6.8 44.2
07:40 1019 30.09 848 25.04 11.4 52.5 74 7 44.6
07:45 1019 30.09 848 25.04 11.3 52.4 74 6.9 44.5
07:50 1019 30.09 848 25.04 11.2 52.1 76 7 44.7
07:55 1019 30.09 848 25.04 10.9 51.7 75 6.7 44
08:00 1019 30.09 848 25.04 10.8 51.5 75 6.6 43.9
08:05 1019 30.09 848 25.04 11.3 52.3 71 6.3 43.3
08:10 1019 30.09 848 25.04 12.2 53.9 69 6.7 44.1
08:15 1019 30.09 848 25.04 11.9 53.5 70 6.7 44
08:20 1019 30.09 848 25.04 11.5 52.7 70 6.3 43.4
08:25 1019 30.09 848 25.04 11.3 52.3 71 6.2 43.1
08:30 1019 30.09 848 25.04 11.2 52.2 69 5.9 42.6
08:35 1019 30.09 848 25.04 11.5 52.7 68 5.8 42.5
08:40 1019 30.09 848 25.04 12 53.6 66 5.9 42.6
08:45 1019 30.09 848 25.04 13.1 55.6 58 5 41
08:50 1019 30.09 848 25.04 13.2 55.8 57 4.9 40.7
08:55 1019 30.09 848 25.04 13.7 56.6 53 4.4 39.9
09:00 1019 30.09 848 25.04 13.8 56.8 51 3.9 39
09:05 1019 30.09 848 25.04 13.8 56.8 50 3.5 38.4
09:10 1019 30.09 848 25.04 14.4 57.9 46 2.9 37.3
09:15 1019 30.09 848 25.04 15 59.1 45 3.4 38.1
09:20 1019 30.09 848 25.04 14.3 57.8 46 3 37.3
09:25 1019 30.09 848 25.04 14.9 58.9 44 2.9 37.2
09:30 1019 30.09 848 25.04 15.7 60.2 43 3.1 37.7
09:35 1019 30.09 848 25.04 15.7 60.2 43 3.3 37.9
09:40 1019 30.09 848 25.04 15.3 59.6 41 2.4 36.3
09:45 1019 30.09 848 25.04 15.9 60.5 44 3.6 38.5
09:50 1019 30.09 848 25.04 16 60.7 40 2.4 36.4
09:55 1019 30.09 848 25.04 16.1 60.9 42 3.2 37.7
10:00 1019 30.09 848 25.04 16.4 61.5 40 3 37.4
10:05 1019 30.09 848 25.04 17.1 62.8 39 3.2 37.8
10:10 1018 30.06 848 25.04 16.8 62.3 41 3.5 38.3
10:15 1018 30.06 848 25.04 17.1 62.8 39 3.1 37.5
10:20 1018 30.06 848 25.04 16.4 61.4 42 3.4 38.1
10:25 1018 30.06 848 25.04 17.4 63.3 39 3.5 38.3
10:30 1018 30.06 848 25.04 16.8 62.2 41 3.5 38.4
10:35 1018 30.06 847 25.01 17.1 62.7 38 2.6 36.7
10:40 1018 30.06 847 25.01 17.6 63.7 39 3.6 38.4
10:45 1018 30.06 847 25.01 16.5 61.6 42 3.8 38.8
10:50 1018 30.06 847 25.01 16.3 61.4 39 2.6 36.7
10:55 1018 30.06 847 25.01 16.9 62.5 41 3.6 38.5
11:00 1018 30.06 847 25.01 17.9 64.3 37 3.3 37.9
11:05 1018 30.06 847 25.01 17.3 63.1 37 2.6 36.7
11:10 1018 30.06 847 25.01 17.9 64.3 33 1.5 34.8
11:15 1018 30.06 847 25.01 18.9 66 31 1.7 35
11:20 1018 30.06 847 25.01 18.8 65.9 32 2.1 35.8
11:25 1018 30.06 847 25.01 19 66.3 33 2.5 36.5
11:30 1018 30.06 847 25.01 18.2 64.8 36 3.1 37.6
11:35 1018 30.06 847 25.01 18.2 64.7 36 3.2 37.7
11:40 1018 30.06 847 25.01 17.6 63.6 36 2.5 36.6
11:45 1018 30.06 847 25.01 17.4 63.3 37 2.5 36.5
11:50 1018 30.06 847 25.01 17.6 63.6 35 2.1 35.9
11:55 1018 30.06 847 25.01 18.6 65.5 33 2.3 36.1
12:00 1018 30.06 847 25.01 18.9 66.1 34 2.7 36.9
12:05 1018 30.06 847 25.01 19.4 66.9 34 3.1 37.6
12:10 1018 30.06 847 25.01 16.9 62.5 43 4.5 40.1
12:15 1018 30.06 847 25.01 14.4 57.9 47 3.3 37.9
12:20 1018 30.06 847 25.01 13.9 57 49 3.6 38.5
12:25 1018 30.06 848 25.04 12.6 54.7 59 4.9 40.9
12:30 1018 30.06 848 25.04 11.3 52.4 68 5.7 42.3
12:35 1018 30.06 848 25.04 10.8 51.4 67 4.9 40.8
12:40 1018 30.06 847 25.01 11 51.9 66 5 41.1
12:45 1018 30.06 847 25.01 11.6 52.9 61 4.5 40.1
12:50 1018 30.06 847 25.01 12 53.6 63 5.2 41.4
12:55 1018 30.06 847 25.01 12.2 53.9 64 5.6 42
13:00 1018 30.06 847 25.01 12.5 54.5 63 5.8 42.4
13:05 1018 30.06 847 25.01 13.3 55.9 56 4.9 40.8
13:10 1018 30.06 847 25.01 14.2 57.5 58 6.2 43.2
13:15 1018 30.06 847 25.01 14.8 58.7 54 5.6 42.1
13:20 1018 30.06 847 25.01 15.4 59.8 45 3.6 38.4
13:25 1018 30.06 847 25.01 16.1 60.9 41 2.8 37
13:30 1018 30.06 847 25.01 16.8 62.2 38 2.6 36.7
13:35 1018 30.06 847 25.01 17.7 63.8 37 2.9 37.2
13:40 1018 30.06 847 25.01 18.3 64.9 34 2.4 36.3
13:45 1018 30.06 847 25.01 18.7 65.6 33 2.2 36
13:50 1018 30.06 847 25.01 18.9 66 30 1.1 33.9
13:55 1018 30.06 847 25.01 18.1 64.5 32 1.3 34.4
14:00 1018 30.06 847 25.01 18.6 65.4 30 1 33.7
14:05 1018 30.06 847 25.01 19.1 66.5 30 1.4 34.6
14:10 1018 30.06 847 25.01 19.3 66.8 30 1.7 35
14:15 1018 30.06 847 25.01 19 66.2 31 1.4 34.5
14:20 1018 30.06 847 25.01 18.8 65.8 31 1.2 34.2
14:25 1018 30.06 847 25.01 18.9 66 30 0.9 33.5
14:30 1018 30.06 847 25.01 19.3 66.8 28 0.7 33.3
14:35 1018 30.06 847 25.01 19.2 66.6 30 1.2 34.1
14:40 1018 30.06 847 25.01 19.6 67.3 28 0.7 33.3
14:45 1018 30.06 847 25.01 19.7 67.4 28 1 33.8
14:50 1018 30.06 847 25.01 19.3 66.7 30 1.4 34.6
14:55 1018 30.06 847 25.01 19.2 66.5 28 0.4 32.7
15:00 1018 30.06 847 25.01 20 68 25 -0.3 31.5
15:05 1018 30.06 847 25.01 20.1 68.3 27 0.8 33.4
15:10 1017 30.03 847 25.01 20.6 69.1 25 0.3 32.5
15:15 1017 30.03 847 25.01 20.3 68.5 28 1.3 34.4
15:20 1017 30.03 847 25.01 19.3 66.8 28 0.3 32.6
15:25 1017 30.03 847 25.01 19.9 67.8 28 0.8 33.4
15:30 1017 30.03 847 25.01 20.3 68.6 28 1.6 34.8
15:35 1017 30.03 847 25.01 20.3 68.5 27 1 33.8
15:40 1017 30.03 847 25.01 20.3 68.5 29 1.8 35.2
15:45 1017 30.03 847 25.01 19.5 67.1 30 1.4 34.6
15:50 1017 30.03 847 25.01 19.9 67.8 29 1.6 34.8
15:55 1017 30.03 847 25.01 19.5 67.1 28 0.9 33.6
16:00 1017 30.03 847 25.01 20.3 68.5 26 0.3 32.5
16:05 1018 30.06 847 25.01 20.5 68.9 24 -0.6 30.9
16:10 1018 30.06 847 25.01 20.4 68.8 25 -0.1 31.9
16:15 1018 30.06 847 25.01 19.9 67.9 26 0 32.1
16:20 1017 30.03 847 25.01 20.3 68.5 24 -0.7 30.7
16:25 1017 30.03 847 25.01 20.1 68.2 28 1.3 34.4
16:30 1017 30.03 847 25.01 19.4 66.8 30 1.4 34.5
16:35 1017 30.03 847 25.01 19.2 66.5 27 -0.2 31.7
16:40 1017 30.03 847 25.01 19.6 67.3 29 1.2 34.2
16:45 1017 30.03 847 25.01 19.3 66.8 30 1.5 34.8
16:50 1017 30.03 846 24.98 18.9 66 27 -0.2 31.7
16:55 1017 30.03 846 24.98 19 66.2 29 0.6 33.2
17:00 1017 30.03 846 24.98 19.3 66.7 27 0.2 32.3
17:05 1017 30.03 846 24.98 19.5 67 28 0.7 33.3
17:10 1017 30.03 846 24.98 19.1 66.5 28 0.4 32.7
17:15 1017 30.03 846 24.98 18.7 65.7 30 0.8 33.5
17:20 1017 30.03 846 24.98 19.4 66.9 28 0.8 33.4
17:25 1017 30.03 846 24.98 19.6 67.2 29 1.2 34.2
17:30 1017 30.03 846 24.98 19.7 67.5 27 0.5 32.9
17:35 1017 30.03 846 24.98 19.2 66.6 28 0.4 32.7
17:40 1017 30.03 846 24.98 19.6 67.2 27 0.4 32.7
17:45 1017 30.03 846 24.98 20 68 27 0.4 32.7
17:50 1017 30.03 846 24.98 20.4 68.6 26 0.3 32.5
17:55 1017 30.03 846 24.98 19.9 67.7 27 0.5 32.8
18:00 1017 30.03 846 24.98 20.4 68.8 27 0.8 33.4
18:05 1017 30.03 846 24.98 20.8 69.4 26 0.8 33.5
18:10 1017 30.03 846 24.98 19.8 67.6 28 0.9 33.7
18:15 1017 30.03 846 24.98 19.3 66.8 29 0.9 33.6
18:20 1017 30.03 846 24.98 19.6 67.2 28 0.8 33.4
18:25 1017 30.03 846 24.98 19.4 66.9 28 0.7 33.2
18:30 1017 30.03 846 24.98 19.3 66.7 29 0.9 33.6
18:35 1017 30.03 846 24.98 19.2 66.6 28 0.6 33.1
18:40 1017 30.03 846 24.98 19.2 66.5 28 0.5 33
18:45 1017 30.03 846 24.98 19.1 66.3 29 0.8 33.4
18:50 1017 30.03 846 24.98 18.9 66 29 0.7 33.3
18:55 1017 30.03 846 24.98 18.8 65.8 30 0.8 33.5
19:00 1017 30.03 846 24.98 18.9 66 29 0.5 32.9
19:05 1017 30.03 846 24.98 18.8 65.9 30 0.9 33.5
19:10 1017 30.03 846 24.98 18.7 65.6 30 0.7 33.3
19:15 1017 30.03 846 24.98 18.6 65.5 31 1.2 34.2
19:20 1017 30.03 846 24.98 18.4 65.2 31 1.3 34.4
19:25 1017 30.03 846 24.98 18.3 64.9 30 0.7 33.3
19:30 1017 30.03 846 24.98 18.3 64.9 30 0.4 32.7
19:35 1017 30.03 846 24.98 18.3 64.9 30 0.6 33
19:40 1017 30.03 846 24.98 18.2 64.8 32 1.3 34.3
19:45 1017 30.03 846 24.98 18 64.5 32 1.3 34.4
19:50 1017 30.03 846 24.98 17.9 64.1 33 1.4 34.5
19:55 1017 30.03 846 24.98 17.6 63.6 33 1.2 34.1
20:00 1017 30.03 846 24.98 17.2 63 34 1.1 34
20:05 1017 30.03 846 24.98 17 62.5 35 1.7 35
20:10 1017 30.03 846 24.98 16.8 62.3 38 2.4 36.3
20:15 1017 30.03 846 24.98 16.6 61.8 45 4.6 40.3
20:20 1017 30.03 846 24.98 16 60.9 48 5.1 41.1
20:25 1017 30.03 846 24.98 15.5 59.9 49 5 41.1
20:30 1017 30.03 846 24.98 15.1 59.2 51 5.1 41.2
20:35 1017 30.03 846 24.98 14.8 58.7 52 5.2 41.3
20:40 1017 30.03 846 24.98 14.3 57.7 57 6.1 42.9
20:45 1017 30.03 846 24.98 13.7 56.6 60 6.1 42.9
20:50 1017 30.03 847 25.01 13.2 55.8 60 5.8 42.4
20:55 1017 30.03 847 25.01 12.9 55.2 59 5.1 41.1
21:00 1017 30.03 847 25.01 12.7 54.9 57 4.5 40.1
21:05 1017 30.03 847 25.01 12.8 55 56 4.2 39.6
21:10 1017 30.03 847 25.01 12.8 55 56 4.2 39.5
21:15 1017 30.03 847 25.01 12.7 54.8 56 4.2 39.6
21:20 1017 30.03 847 25.01 12.5 54.5 57 4.3 39.7
21:25 1017 30.03 847 25.01 12.3 54.2 57 4.2 39.6
21:30 1017 30.03 847 25.01 12.2 54 57 4 39.2
21:35 1017 30.03 847 25.01 12.2 53.9 58 4.3 39.7
21:40 1017 30.03 847 25.01 12 53.5 58 4.1 39.4
21:45 1017 30.03 847 25.01 11.8 53.2 59 4 39.2
21:50 1017 30.03 847 25.01 11.7 53.1 58 3.9 39
21:55 1017 30.03 847 25.01 11.8 53.2 58 3.8 38.8
22:00 1017 30.03 847 25.01 11.6 53 58 3.8 38.8
22:05 1017 30.03 846 24.98 11.7 53 57 3.6 38.4
22:10 1017 30.03 846 24.98 11.6 52.9 58 3.6 38.5
22:15 1017 30.03 846 24.98 11.5 52.7 57 3.4 38.2
22:20 1017 30.03 846 24.98 11.4 52.5 58 3.4 38.2
22:25 1017 30.03 846 24.98 11.4 52.4 58 3.5 38.3
22:30 1017 30.03 846 24.98 11.1 52 59 3.5 38.3
22:35 1017 30.03 846 24.98 11 51.8 59 3.2 37.8
22:40 1017 30.03 846 24.98 11 51.7 60 3.5 38.3
22:45 1017 30.03 846 24.98 10.8 51.5 59 3.2 37.8
22:50 1017 30.03 846 24.98 10.7 51.3 59 3.1 37.6
22:55 1017 30.03 846 24.98 10.7 51.3 59 3 37.4
23:00 1017 30.03 846 24.98 10.8 51.5 58 2.9 37.3
23:05 1017 30.03 846 24.98 10.9 51.5 58 2.9 37.3
23:10 1017 30.03 846 24.98 10.7 51.3 58 2.9 37.2
23:15 1017 30.03 846 24.98 10.7 51.2 58 2.9 37.2
23:20 1017 30.03 846 24.98 10.7 51.2 58 2.7 36.9
23:25 1017 30.03 846 24.98 10.3 50.5 59 2.5 36.6
23:30 1017 30.03 846 24.98 10.2 50.4 57 2.1 35.7
23:35 1017 30.03 846 24.98 10.2 50.4 56 2 35.5
23:40 1017 30.03 846 24.98 10.3 50.6 56 1.9 35.4
23:45 1017 30.03 846 24.98 10.4 50.7 54 1.7 35
23:50 1017 30.03 846 24.98 10.5 50.9 55 1.8 35.2
23:55 1017 30.03 846 24.98 10.3 50.6 56 2 35.6
24:00 1017 30.03 846 24.98 10.1 50.2 56 1.7 35.1